Time;durP1;ratioP1;P1;durP2;ratioP2;P2;SDS_P1;SDS_P2;PMS_P1;PMS_P2;Temp;Humidity;BMP_temperature;BMP_pressure;BME280_temperature;BME280_humidity;BME280_pressure;Samples;Min_cycle;Max_cycle;Signal;HPM_P1;HPM_P2
2022/10/19 00:01:38;;;;;;;15.17;13.77;;;15.10;99.90;;;;;;6117542;23;20453;-74
2022/10/19 00:04:05;;;;;;;15.07;13.60;;;15.10;99.90;;;;;;6117072;23;20598;-74
2022/10/19 00:06:35;;;;;;;14.40;13.20;;;15.10;99.90;;;;;;6117673;23;20434;-74
2022/10/19 00:09:05;;;;;;;15.57;14.07;;;15.10;99.90;;;;;;6114354;23;20953;-77
2022/10/19 00:11:33;;;;;;;13.97;12.77;;;15.10;99.90;;;;;;6113377;23;20433;-77
2022/10/19 00:14:01;;;;;;;13.70;12.50;;;15.10;99.90;;;;;;6113180;23;20538;-77
2022/10/19 00:16:32;;;;;;;13.70;12.53;;;15.00;99.90;;;;;;6112019;23;20531;-77
2022/10/19 00:19:03;;;;;;;12.80;11.80;;;15.00;99.90;;;;;;6115286;23;20504;-77
2022/10/19 00:21:30;;;;;;;12.43;11.23;;;15.00;99.90;;;;;;6112562;23;20909;-77
2022/10/19 00:23:57;;;;;;;11.90;10.90;;;15.00;99.90;;;;;;6113366;23;20544;-77
2022/10/19 00:26:24;;;;;;;11.80;10.80;;;14.90;99.90;;;;;;6111827;23;20512;-77
2022/10/19 00:28:53;;;;;;;11.37;10.37;;;14.90;99.90;;;;;;6130811;23;20428;-77
2022/10/19 00:31:21;;;;;;;11.20;10.20;;;14.90;99.90;;;;;;6115362;23;20984;-77
2022/10/19 00:33:50;;;;;;;11.40;10.40;;;14.90;99.90;;;;;;6110903;23;20457;-77
2022/10/19 00:36:20;;;;;;;11.03;10.03;;;14.90;99.90;;;;;;6112985;23;20498;-77
2022/10/19 00:38:48;;;;;;;10.80;9.87;;;14.90;99.90;;;;;;6113045;23;20477;-77
2022/10/19 00:41:17;;;;;;;10.83;10.00;;;14.90;99.90;;;;;;6118427;23;20457;-75
2022/10/19 00:43:53;;;;;;;10.40;9.47;;;14.90;99.90;;;;;;6117252;23;20519;-76
2022/10/19 00:46:20;;;;;;;11.53;10.53;;;14.90;99.90;;;;;;6115345;23;20468;-76
2022/10/19 00:48:48;;;;;;;11.17;10.27;;;14.90;99.90;;;;;;6114082;23;20857;-76
2022/10/19 00:51:17;;;;;;;12.50;11.50;;;14.90;99.90;;;;;;6124036;23;20464;-76
2022/10/19 00:53:44;;;;;;;12.17;11.17;;;14.90;99.90;;;;;;6117959;23;20430;-76
2022/10/19 00:56:15;;;;;;;12.83;11.63;;;14.90;99.90;;;;;;6108500;23;20432;-76
2022/10/19 00:58:43;;;;;;;11.73;10.77;;;15.00;99.90;;;;;;6114175;23;20429;-76
2022/10/19 01:01:16;;;;;;;14.17;12.87;;;14.90;99.90;;;;;;6117171;23;20540;-76
2022/10/19 01:03:44;;;;;;;13.13;11.83;;;15.00;99.90;;;;;;6105443;23;20476;-76
2022/10/19 01:06:14;;;;;;;14.03;12.73;;;15.00;99.90;;;;;;6116607;23;20468;-76
2022/10/19 01:08:42;;;;;;;14.13;11.97;;;15.10;99.90;;;;;;6114890;23;20448;-76
2022/10/19 01:11:22;;;;;;;16.03;14.50;;;15.00;99.90;;;;;;6119626;23;20433;-76
2022/10/19 01:14:01;;;;;;;14.23;12.83;;;15.10;99.90;;;;;;6123515;23;20846;-76
2022/10/19 01:16:38;;;;;;;15.13;13.80;;;15.10;99.90;;;;;;6116983;23;20445;-76
2022/10/19 01:19:27;;;;;;;15.17;13.57;;;15.10;99.90;;;;;;6111291;23;20436;-76
2022/10/19 01:22:02;;;;;;;15.50;14.00;;;15.10;99.90;;;;;;6110047;23;20457;-76
2022/10/19 01:24:47;;;;;;;15.87;14.37;;;15.20;99.90;;;;;;6119391;23;20471;-76
2022/10/19 01:27:53;;;;;;;17.33;12.63;;;15.30;99.90;;;;;;6112153;23;20434;-76
2022/10/19 01:30:33;;;;;;;13.03;11.73;;;15.20;99.90;;;;;;6116177;23;20443;-76
2022/10/19 01:33:11;;;;;;;13.70;12.60;;;15.10;99.90;;;;;;6114870;23;20437;-76
2022/10/19 01:35:45;;;;;;;13.53;12.33;;;15.00;99.90;;;;;;6111393;23;20437;-76
2022/10/19 01:38:21;;;;;;;14.60;13.40;;;14.90;99.90;;;;;;6111483;23;20523;-76
2022/10/19 01:40:57;;;;;;;15.20;13.83;;;14.90;99.90;;;;;;6111338;23;20508;-76
2022/10/19 01:43:33;;;;;;;15.10;13.60;;;14.80;99.90;;;;;;6112095;23;20429;-76
2022/10/19 01:46:10;;;;;;;14.03;12.93;;;14.70;99.90;;;;;;6112023;23;20534;-76
2022/10/19 01:48:41;;;;;;;16.50;14.97;;;14.70;99.90;;;;;;6111696;23;20994;-76
2022/10/19 01:51:13;;;;;;;15.03;13.57;;;14.70;99.90;;;;;;6115815;23;20523;-76
2022/10/19 01:53:44;;;;;;;20.07;14.00;;;14.70;99.90;;;;;;6113023;23;20525;-76
2022/10/19 01:56:14;;;;;;;19.30;14.67;;;14.70;99.90;;;;;;6112681;23;20471;-76
2022/10/19 01:58:44;;;;;;;16.37;14.70;;;14.60;99.90;;;;;;6111541;23;20529;-76
2022/10/19 02:01:19;;;;;;;15.13;13.83;;;14.60;99.90;;;;;;6115316;23;20452;-76
2022/10/19 02:03:47;;;;;;;17.77;16.10;;;14.60;99.90;;;;;;6112424;23;21010;-76
2022/10/19 02:06:15;;;;;;;26.53;19.43;;;14.70;99.90;;;;;;6109229;23;20428;-76
2022/10/19 02:08:45;;;;;;;18.47;16.87;;;14.70;99.90;;;;;;6109983;23;20440;-76
2022/10/19 02:11:13;;;;;;;18.50;16.90;;;14.70;99.90;;;;;;6111731;23;20463;-76
2022/10/19 02:13:43;;;;;;;17.47;15.90;;;14.70;99.90;;;;;;6114450;23;20437;-76
2022/10/19 02:16:15;;;;;;;19.30;17.47;;;14.70;99.90;;;;;;6120011;23;20479;-76
2022/10/19 02:18:47;;;;;;;19.20;17.30;;;14.70;99.90;;;;;;6104140;23;20437;-76
2022/10/19 02:21:14;;;;;;;20.13;17.10;;;14.70;99.90;;;;;;6115249;23;20469;-76
2022/10/19 02:23:41;;;;;;;17.00;15.57;;;14.70;99.90;;;;;;6114401;23;20433;-76
2022/10/19 02:26:09;;;;;;;20.03;18.23;;;14.70;99.90;;;;;;6108118;23;20457;-76
2022/10/19 02:28:37;;;;;;;18.27;16.33;;;14.70;99.90;;;;;;6116686;23;20476;-76
2022/10/19 02:31:04;;;;;;;18.53;16.63;;;14.70;99.90;;;;;;6119895;23;20413;-76
2022/10/19 02:33:33;;;;;;;19.90;17.93;;;14.70;99.90;;;;;;6114834;23;20976;-76
2022/10/19 02:36:01;;;;;;;19.73;17.77;;;14.70;99.90;;;;;;6115448;23;20527;-76
2022/10/19 02:38:28;;;;;;;21.53;19.27;;;14.70;99.90;;;;;;6115630;23;20467;-76
2022/10/19 02:41:04;;;;;;;19.10;17.13;;;14.80;99.90;;;;;;6111744;23;20516;-76
2022/10/19 02:43:33;;;;;;;18.93;16.63;;;14.70;99.90;;;;;;6118434;23;20445;-76
2022/10/19 02:46:05;;;;;;;18.37;16.67;;;14.70;99.90;;;;;;6114423;23;20466;-76
2022/10/19 02:48:36;;;;;;;25.27;17.07;;;14.60;99.90;;;;;;6112999;23;20490;-76
2022/10/19 02:51:04;;;;;;;19.93;15.27;;;14.50;99.90;;;;;;6110968;23;20490;-76
2022/10/19 02:53:31;;;;;;;16.67;15.17;;;14.50;99.90;;;;;;6115061;23;20925;-76
2022/10/19 02:55:58;;;;;;;18.23;16.30;;;14.40;99.90;;;;;;6113811;23;20430;-76
2022/10/19 02:58:25;;;;;;;18.10;16.30;;;14.40;99.90;;;;;;6113912;23;20465;-76
2022/10/19 03:00:53;;;;;;;17.27;15.57;;;14.40;99.90;;;;;;6116248;23;20843;-76
2022/10/19 03:03:20;;;;;;;17.03;15.43;;;14.30;99.90;;;;;;6119816;23;20861;-76
2022/10/19 03:05:48;;;;;;;15.40;14.00;;;14.30;99.90;;;;;;6109730;23;20495;-76
2022/10/19 03:08:15;;;;;;;16.37;14.87;;;14.30;99.90;;;;;;6101275;23;20447;-76
2022/10/19 03:10:42;;;;;;;16.70;15.23;;;14.30;99.90;;;;;;6120843;23;20427;-76
2022/10/19 03:13:10;;;;;;;23.60;15.63;;;14.30;99.90;;;;;;6131493;23;20512;-76
2022/10/19 03:15:37;;;;;;;51.00;16.33;;;14.20;99.90;;;;;;6109130;23;20440;-76
2022/10/19 03:18:04;;;;;;;58.57;17.87;;;14.20;99.90;;;;;;6109403;23;20934;-76
2022/10/19 03:20:31;;;;;;;45.63;17.50;;;14.20;99.90;;;;;;6113920;23;20452;-76
2022/10/19 03:23:00;;;;;;;60.37;18.50;;;14.10;99.90;;;;;;6112896;23;20930;-76
2022/10/19 03:25:27;;;;;;;27.40;16.00;;;14.10;99.90;;;;;;6111654;23;20515;-76
2022/10/19 03:27:54;;;;;;;29.73;18.53;;;14.10;99.90;;;;;;6111153;23;20440;-76
2022/10/19 03:30:21;;;;;;;18.00;16.20;;;14.00;99.90;;;;;;6114594;23;20441;-76
2022/10/19 03:32:48;;;;;;;19.87;17.97;;;14.10;99.90;;;;;;6111832;23;20465;-76
2022/10/19 03:35:16;;;;;;;20.20;18.30;;;14.10;99.90;;;;;;6108272;23;20442;-76
2022/10/19 03:37:43;;;;;;;20.13;18.23;;;14.20;99.90;;;;;;6109138;23;21011;-76
2022/10/19 03:40:12;;;;;;;20.43;18.37;;;14.30;99.90;;;;;;6104748;23;20522;-76
2022/10/19 03:42:39;;;;;;;18.83;17.03;;;14.40;99.90;;;;;;6109749;23;20610;-77
2022/10/19 03:45:07;;;;;;;20.90;18.70;;;14.40;99.90;;;;;;6120186;23;20451;-76
2022/10/19 03:47:34;;;;;;;19.30;17.50;;;14.50;99.90;;;;;;6124026;23;20435;-77
2022/10/19 03:50:01;;;;;;;20.27;17.13;;;14.50;99.90;;;;;;6116591;23;20469;-77
2022/10/19 03:52:28;;;;;;;23.93;17.70;;;14.50;99.90;;;;;;6117688;23;20439;-76
2022/10/19 03:54:55;;;;;;;40.23;17.20;;;14.50;99.90;;;;;;6137748;23;20516;-77
2022/10/19 03:57:24;;;;;;;28.47;17.13;;;14.50;99.90;;;;;;6129166;23;20439;-77
2022/10/19 03:59:51;;;;;;;18.97;15.40;;;14.50;99.90;;;;;;6113677;23;20515;-76
2022/10/19 04:02:18;;;;;;;27.30;15.90;;;14.40;99.90;;;;;;6114770;23;20502;-76
2022/10/19 04:04:45;;;;;;;42.23;16.60;;;14.20;99.90;;;;;;6127804;23;20795;-76
2022/10/19 04:07:12;;;;;;;61.63;19.10;;;14.20;99.90;;;;;;6123227;23;20464;-76
2022/10/19 04:09:39;;;;;;;30.97;16.90;;;14.10;99.90;;;;;;6126150;23;20520;-76
2022/10/19 04:12:07;;;;;;;18.43;16.53;;;14.00;99.90;;;;;;6129712;23;21015;-75
2022/10/19 04:14:37;;;;;;;26.73;17.20;;;13.90;99.90;;;;;;6112061;23;20852;-75
2022/10/19 04:17:04;;;;;;;18.53;15.07;;;13.90;99.90;;;;;;6119923;23;20908;-76
2022/10/19 04:19:32;;;;;;;35.17;19.23;;;13.90;99.90;;;;;;6113486;23;20469;-75
2022/10/19 04:21:59;;;;;;;53.13;20.20;;;13.90;99.90;;;;;;6117189;23;20444;-75
2022/10/19 04:24:27;;;;;;;21.30;18.70;;;13.90;99.90;;;;;;6122916;23;20474;-76
2022/10/19 04:26:56;;;;;;;20.67;17.37;;;13.90;99.90;;;;;;6088644;23;20557;-76
2022/10/19 04:29:26;;;;;;;28.83;19.00;;;14.00;99.90;;;;;;6114023;23;20850;-77
2022/10/19 04:31:54;;;;;;;24.57;18.23;;;14.00;99.90;;;;;;6125003;23;20534;-74
2022/10/19 04:34:22;;;;;;;23.93;18.67;;;14.10;99.90;;;;;;6118306;23;21003;-74
2022/10/19 04:36:48;;;;;;;20.10;18.00;;;14.20;99.90;;;;;;6120718;23;20508;-74
2022/10/19 04:39:16;;;;;;;17.87;16.00;;;14.30;99.90;;;;;;6127587;23;20491;-77
2022/10/19 04:41:43;;;;;;;20.10;16.30;;;14.40;99.90;;;;;;6122264;23;20436;-77
2022/10/19 04:44:10;;;;;;;16.30;14.80;;;14.40;99.90;;;;;;6132273;23;20441;-77
2022/10/19 04:46:38;;;;;;;41.70;17.43;;;14.50;99.90;;;;;;6126782;23;20537;-77
2022/10/19 04:49:07;;;;;;;15.50;13.40;;;14.40;99.90;;;;;;6121600;23;20445;-77
2022/10/19 04:51:35;;;;;;;19.03;14.73;;;14.30;99.90;;;;;;6115961;23;20514;-77
2022/10/19 04:54:02;;;;;;;16.43;14.93;;;14.30;99.90;;;;;;6121250;23;20436;-77
2022/10/19 04:56:31;;;;;;;25.67;15.63;;;14.20;99.90;;;;;;6126699;23;20521;-76
2022/10/19 04:58:59;;;;;;;29.53;16.97;;;14.20;99.90;;;;;;6116485;23;20424;-79
2022/10/19 05:01:28;;;;;;;18.93;16.93;;;14.10;99.90;;;;;;6110381;23;20443;-76
2022/10/19 05:03:57;;;;;;;40.47;18.50;;;14.00;99.90;;;;;;6134341;23;20449;-76
2022/10/19 05:06:26;;;;;;;19.00;16.30;;;14.00;99.90;;;;;;6150239;23;20450;-76
2022/10/19 05:08:53;;;;;;;25.67;17.07;;;13.90;99.90;;;;;;6135061;23;20943;-76
2022/10/19 05:11:21;;;;;;;18.63;16.60;;;13.90;99.90;;;;;;6149101;23;20430;-76
2022/10/19 05:13:49;;;;;;;21.80;17.10;;;13.90;99.90;;;;;;6131926;23;20510;-76
2022/10/19 05:16:18;;;;;;;17.93;16.23;;;13.90;99.90;;;;;;6119228;23;20486;-76
2022/10/19 05:18:48;;;;;;;18.03;15.70;;;13.80;99.90;;;;;;6129299;23;20521;-76
2022/10/19 05:21:17;;;;;;;29.40;17.63;;;13.80;99.90;;;;;;6121012;23;20400;-76
2022/10/19 05:23:45;;;;;;;57.20;17.63;;;13.80;99.90;;;;;;6118235;23;20436;-76
2022/10/19 05:26:16;;;;;;;20.93;16.13;;;13.80;99.90;;;;;;6120527;23;20459;-76
2022/10/19 05:28:43;;;;;;;16.90;15.30;;;13.80;99.90;;;;;;6120725;23;20786;-76
2022/10/19 05:31:13;;;;;;;21.50;16.83;;;13.80;99.90;;;;;;6126803;23;20444;-76
2022/10/19 05:33:42;;;;;;;18.07;16.33;;;13.80;99.90;;;;;;6119035;23;20420;-76
2022/10/19 05:36:17;;;;;;;17.20;15.50;;;13.80;99.90;;;;;;6110336;23;20428;-76
2022/10/19 05:38:48;;;;;;;19.27;17.57;;;13.80;99.90;;;;;;6126723;23;20437;-76
2022/10/19 05:41:16;;;;;;;19.00;17.20;;;13.90;99.90;;;;;;6122029;23;20426;-76
2022/10/19 05:43:44;;;;;;;19.67;17.83;;;13.90;99.90;;;;;;6120011;23;20432;-76
2022/10/19 05:46:13;;;;;;;20.73;18.83;;;14.00;99.90;;;;;;6129121;23;20531;-76
2022/10/19 05:48:40;;;;;;;20.17;18.37;;;14.00;99.90;;;;;;6119108;23;20947;-76
2022/10/19 05:51:11;;;;;;;19.37;17.47;;;14.10;99.90;;;;;;6139906;23;20444;-76
2022/10/19 05:53:39;;;;;;;19.20;17.60;;;14.10;99.90;;;;;;6134268;23;20426;-75
2022/10/19 05:56:12;;;;;;;15.67;14.27;;;14.30;99.90;;;;;;6124533;23;20420;-76
2022/10/19 05:58:40;;;;;;;14.33;13.13;;;14.20;99.90;;;;;;6112770;23;20432;-77
2022/10/19 06:01:08;;;;;;;26.33;17.00;;;14.20;99.90;;;;;;6121203;23;20491;-77
2022/10/19 06:03:35;;;;;;;14.00;12.70;;;14.20;99.90;;;;;;6119714;23;20918;-77
2022/10/19 06:06:05;;;;;;;14.73;13.43;;;14.20;99.90;;;;;;6120444;23;20893;-77
2022/10/19 06:08:32;;;;;;;14.97;13.67;;;14.10;99.90;;;;;;6120680;23;20431;-76
2022/10/19 06:11:06;;;;;;;15.37;13.87;;;14.10;99.90;;;;;;6094330;23;20421;-76
2022/10/19 06:13:36;;;;;;;17.17;15.50;;;14.10;99.90;;;;;;6120602;23;20458;-77
2022/10/19 06:16:03;;;;;;;26.60;21.43;;;14.20;99.90;;;;;;6114606;23;20419;-76
2022/10/19 06:18:30;;;;;;;14.73;13.33;;;14.20;99.90;;;;;;6122186;23;20503;-76
2022/10/19 06:21:03;;;;;;;14.47;12.90;;;14.20;99.90;;;;;;6120415;23;20436;-76
2022/10/19 06:23:30;;;;;;;14.23;13.03;;;14.20;99.90;;;;;;6118379;23;20436;-76
2022/10/19 06:25:58;;;;;;;13.40;12.20;;;14.20;99.90;;;;;;6091471;23;20543;-76
2022/10/19 06:28:25;;;;;;;13.13;12.03;;;14.20;99.90;;;;;;6091709;23;20459;-76
2022/10/19 06:30:54;;;;;;;13.80;12.63;;;14.20;99.90;;;;;;6120184;23;20489;-77
2022/10/19 06:33:21;;;;;;;13.10;12.00;;;14.20;99.90;;;;;;6120556;23;20435;-76
2022/10/19 06:35:49;;;;;;;12.30;11.23;;;14.20;99.90;;;;;;6119024;23;20431;-77
2022/10/19 06:38:16;;;;;;;12.00;10.90;;;14.10;99.90;;;;;;6119346;23;20423;-76
2022/10/19 06:40:43;;;;;;;13.93;12.63;;;14.10;99.90;;;;;;6120081;23;20428;-76
2022/10/19 06:43:11;;;;;;;14.27;12.97;;;14.10;99.90;;;;;;6120652;23;20449;-77
2022/10/19 06:45:38;;;;;;;12.83;11.80;;;14.10;99.90;;;;;;6118450;23;20428;-77
2022/10/19 06:48:08;;;;;;;13.37;12.10;;;14.00;99.90;;;;;;6119429;23;20457;-76
2022/10/19 06:50:35;;;;;;;14.47;13.07;;;14.00;99.90;;;;;;6120728;23;20448;-77
2022/10/19 06:53:02;;;;;;;13.73;12.47;;;14.00;99.90;;;;;;6127353;23;20425;-76
2022/10/19 06:55:30;;;;;;;11.87;10.67;;;13.90;99.90;;;;;;6120170;23;20461;-76
2022/10/19 06:58:00;;;;;;;13.23;12.03;;;13.90;99.90;;;;;;6119977;23;20434;-77
2022/10/19 07:00:27;;;;;;;13.47;12.20;;;13.90;99.90;;;;;;6120364;23;20481;-76
2022/10/19 07:02:55;;;;;;;13.50;12.40;;;13.80;99.90;;;;;;6119683;23;20787;-76
2022/10/19 07:05:24;;;;;;;11.73;10.83;;;13.80;99.90;;;;;;6119631;23;20430;-76
2022/10/19 07:07:52;;;;;;;12.57;11.27;;;13.90;99.90;;;;;;6121337;23;20857;-76
2022/10/19 07:10:19;;;;;;;11.33;10.33;;;14.20;99.90;;;;;;6119721;23;20428;-76
2022/10/19 07:12:46;;;;;;;11.60;10.50;;;14.50;99.90;;;;;;6119466;23;20424;-76
2022/10/19 07:15:14;;;;;;;10.97;9.87;;;14.90;99.90;;;;;;6118443;23;20496;-77
2022/10/19 07:17:41;;;;;;;9.90;9.10;;;15.40;99.90;;;;;;6120147;23;20430;-76
2022/10/19 07:20:10;;;;;;;10.07;9.27;;;15.80;99.90;;;;;;6120639;23;20511;-76
2022/10/19 07:22:38;;;;;;;8.57;7.90;;;16.20;99.90;;;;;;6118192;23;20832;-76
2022/10/19 07:25:07;;;;;;;8.50;7.80;;;16.60;99.90;;;;;;6120904;23;20513;-76
2022/10/19 07:27:38;;;;;;;8.97;8.27;;;16.90;99.90;;;;;;6117698;23;20456;-76
2022/10/19 07:30:06;;;;;;;8.13;7.50;;;17.00;99.90;;;;;;6118363;23;20427;-76
2022/10/19 07:32:34;;;;;;;8.90;8.20;;;17.30;99.90;;;;;;6115094;23;20422;-76
2022/10/19 07:35:01;;;;;;;8.83;8.20;;;17.30;99.90;;;;;;6120204;23;20422;-76
2022/10/19 07:37:28;;;;;;;8.67;8.00;;;17.50;99.90;;;;;;6119951;23;20945;-76
2022/10/19 07:39:57;;;;;;;9.53;8.73;;;17.70;99.90;;;;;;6119395;23;21010;-77
2022/10/19 07:42:24;;;;;;;10.67;9.27;;;17.80;99.90;;;;;;6119024;23;20464;-77
2022/10/19 07:44:52;;;;;;;9.60;8.80;;;17.60;99.90;;;;;;6119522;23;20426;-76
2022/10/19 07:47:20;;;;;;;9.03;8.33;;;17.50;99.90;;;;;;6118170;23;20522;-77
2022/10/19 07:49:47;;;;;;;8.50;7.90;;;17.60;99.90;;;;;;6118412;23;20440;-76
2022/10/19 07:52:15;;;;;;;9.00;8.30;;;17.70;99.90;;;;;;6120223;23;20878;-76
2022/10/19 07:54:42;;;;;;;9.93;9.20;;;17.70;99.90;;;;;;6119704;23;20845;-76
2022/10/19 07:57:14;;;;;;;10.17;8.60;;;17.50;99.90;;;;;;6119112;23;20438;-76
2022/10/19 07:59:41;;;;;;;9.70;8.80;;;17.30;99.90;;;;;;6118460;23;20434;-76
2022/10/19 08:02:15;;;;;;;9.70;9.00;;;17.20;99.90;;;;;;6119705;23;21010;-76
2022/10/19 08:04:42;;;;;;;9.70;8.80;;;17.00;99.90;;;;;;6119147;23;20990;-76
2022/10/19 08:07:09;;;;;;;9.60;8.90;;;17.00;99.90;;;;;;6119576;23;20461;-76
2022/10/19 08:09:37;;;;;;;9.33;8.63;;;17.10;99.90;;;;;;6089765;23;20421;-76
2022/10/19 08:12:05;;;;;;;10.13;9.33;;;17.00;99.90;;;;;;6119440;23;20426;-76
2022/10/19 08:14:35;;;;;;;10.93;9.93;;;17.00;99.90;;;;;;6119790;23;20434;-76
2022/10/19 08:17:02;;;;;;;10.90;10.07;;;17.00;99.90;;;;;;6139790;23;20456;-76
2022/10/19 08:19:29;;;;;;;11.03;10.07;;;17.00;99.90;;;;;;6125552;23;20513;-76
2022/10/19 08:21:57;;;;;;;11.23;10.33;;;16.80;99.90;;;;;;6120949;23;20757;-76
2022/10/19 08:24:24;;;;;;;10.70;9.90;;;16.70;99.90;;;;;;6113588;23;21205;-76
2022/10/19 08:26:51;;;;;;;11.33;10.30;;;16.60;99.90;;;;;;6119364;23;20452;-76
2022/10/19 08:29:20;;;;;;;11.70;10.70;;;16.60;99.90;;;;;;6121535;23;20426;-76
2022/10/19 08:31:50;;;;;;;12.10;11.10;;;16.50;99.90;;;;;;6120458;23;20421;-76
2022/10/19 08:34:18;;;;;;;11.60;10.70;;;16.40;99.90;;;;;;6121470;23;20425;-76
2022/10/19 08:36:46;;;;;;;10.47;9.67;;;16.40;99.90;;;;;;6121112;23;20500;-76
2022/10/19 08:39:13;;;;;;;12.17;11.27;;;16.40;99.90;;;;;;6121042;23;20437;-76
2022/10/19 08:41:57;;;;;;;10.97;10.07;;;16.30;99.90;;;;;;6121473;23;20471;-76
2022/10/19 08:44:47;;;;;;;11.70;10.60;;;16.20;99.90;;;;;;6120852;23;20452;-76
2022/10/19 08:47:27;;;;;;;10.27;9.40;;;16.20;99.90;;;;;;6099812;23;20938;-76
2022/10/19 08:49:55;;;;;;;11.70;10.53;;;16.50;99.90;;;;;;6127148;23;20428;-76
2022/10/19 08:52:28;;;;;;;12.60;11.30;;;16.40;99.90;;;;;;6134123;23;20429;-76
2022/10/19 08:54:58;;;;;;;13.87;10.47;;;16.50;99.90;;;;;;6120404;23;20993;-78
2022/10/19 08:57:37;;;;;;;10.30;9.30;;;16.50;99.90;;;;;;6119292;23;20428;-76
2022/10/19 09:00:10;;;;;;;10.70;9.70;;;16.40;99.90;;;;;;6121109;23;20430;-76
2022/10/19 09:02:54;;;;;;;12.37;11.27;;;16.40;99.90;;;;;;6120054;23;20522;-76
2022/10/19 09:05:31;;;;;;;10.70;9.77;;;16.40;99.90;;;;;;6123011;23;20449;-76
2022/10/19 09:07:59;;;;;;;11.80;10.80;;;16.40;99.90;;;;;;6121496;23;21013;-77
2022/10/19 09:10:30;;;;;;;11.50;10.50;;;16.40;99.90;;;;;;6121084;23;20425;-76
2022/10/19 09:13:00;;;;;;;10.77;9.90;;;16.30;99.90;;;;;;6120091;23;20436;-77
2022/10/19 09:15:34;;;;;;;10.80;9.70;;;16.30;99.90;;;;;;6120012;23;20433;-76
2022/10/19 09:18:03;;;;;;;10.57;9.70;;;16.30;99.90;;;;;;6120515;23;20538;-76
2022/10/19 09:20:37;;;;;;;10.73;9.80;;;16.30;99.90;;;;;;6119820;23;20414;-76
2022/10/19 09:23:15;;;;;;;11.67;10.57;;;16.20;99.90;;;;;;6120454;23;20475;-76
2022/10/19 09:25:44;;;;;;;11.00;10.00;;;16.10;99.90;;;;;;6120151;23;20845;-76
2022/10/19 09:28:33;;;;;;;10.30;9.40;;;16.20;99.90;;;;;;6120206;23;20980;-75
2022/10/19 09:31:01;;;;;;;9.90;9.10;;;16.20;99.90;;;;;;6119802;23;20425;-76
2022/10/19 09:33:34;;;;;;;9.20;8.50;;;16.30;99.90;;;;;;6116881;23;20504;-76
2022/10/19 09:36:05;;;;;;;8.77;7.97;;;16.30;99.90;;;;;;6119545;23;20439;-76
2022/10/19 09:38:33;;;;;;;8.43;7.67;;;16.40;99.90;;;;;;6119181;23;20480;-76
2022/10/19 09:41:26;;;;;;;8.53;7.83;;;16.40;99.90;;;;;;6120474;23;20433;-76
2022/10/19 09:43:55;;;;;;;6.87;6.27;;;16.40;99.90;;;;;;6119272;23;20461;-76
2022/10/19 09:46:34;;;;;;;6.37;5.87;;;16.30;99.90;;;;;;6119922;23;20584;-76
2022/10/19 09:49:05;;;;;;;6.37;5.80;;;16.40;99.90;;;;;;6135128;23;20988;-76
2022/10/19 09:51:50;;;;;;;5.10;4.70;;;16.40;99.90;;;;;;6116833;23;20438;-76
2022/10/19 09:54:33;;;;;;;4.27;3.90;;;16.40;99.90;;;;;;6119735;23;20480;-76
2022/10/19 09:57:00;;;;;;;4.27;3.97;;;16.40;99.90;;;;;;6119295;23;20424;-76
2022/10/19 09:59:30;;;;;;;3.90;3.40;;;16.30;99.90;;;;;;6120348;23;20502;-76
2022/10/19 10:02:11;;;;;;;3.80;3.50;;;16.30;99.90;;;;;;6118299;23;20445;-76
2022/10/19 10:04:41;;;;;;;4.07;3.67;;;16.30;99.90;;;;;;6119841;23;20449;-76
2022/10/19 10:07:16;;;;;;;3.83;3.53;;;16.40;99.90;;;;;;6119938;23;20587;-76
2022/10/19 10:09:44;;;;;;;6.83;3.60;;;16.50;99.90;;;;;;6118659;23;20483;-76
2022/10/19 10:12:15;;;;;;;3.40;3.20;;;16.50;99.90;;;;;;6118248;23;20445;-77
2022/10/19 10:14:44;;;;;;;4.17;3.77;;;16.50;99.90;;;;;;6120667;23;20452;-76
2022/10/19 10:17:18;;;;;;;4.00;3.70;;;16.60;99.90;;;;;;6118627;23;20437;-76
2022/10/19 10:20:18;;;;;;;3.50;3.30;;;16.60;99.90;;;;;;6121157;23;20500;-76
2022/10/19 10:22:55;;;;;;;3.83;3.53;;;16.60;99.90;;;;;;6104485;23;20479;-75
2022/10/19 10:25:29;;;;;;;4.10;3.80;;;16.70;99.90;;;;;;6104095;23;20834;-76
2022/10/19 10:27:59;;;;;;;4.00;3.70;;;16.70;99.90;;;;;;6119550;23;21000;-76
2022/10/19 10:30:32;;;;;;;4.90;4.00;;;16.70;99.90;;;;;;6132164;23;20871;-76
2022/10/19 10:33:00;;;;;;;4.23;3.90;;;16.70;99.90;;;;;;6132533;23;20422;-76
2022/10/19 10:35:33;;;;;;;4.77;4.37;;;16.70;99.90;;;;;;6120555;23;20437;-76
2022/10/19 10:38:08;;;;;;;3.90;3.63;;;16.80;99.90;;;;;;6118392;23;20421;-76
2022/10/19 10:40:36;;;;;;;4.60;4.20;;;16.80;99.90;;;;;;6114216;23;20444;-76
2022/10/19 10:43:07;;;;;;;5.07;4.60;;;16.80;99.90;;;;;;6112989;23;20434;-76
2022/10/19 10:45:39;;;;;;;4.43;3.90;;;16.80;99.90;;;;;;6102828;23;20902;-76
2022/10/19 10:48:20;;;;;;;3.50;3.20;;;16.80;99.90;;;;;;6120500;23;20986;-76
2022/10/19 10:50:50;;;;;;;4.07;3.77;;;16.90;99.90;;;;;;6137983;23;20437;-76
2022/10/19 10:53:33;;;;;;;3.37;3.13;;;17.00;99.90;;;;;;6119949;23;20513;-76
2022/10/19 10:56:00;;;;;;;4.00;3.70;;;17.10;99.90;;;;;;6117440;23;20455;-76
2022/10/19 10:58:35;;;;;;;4.33;4.03;;;17.30;99.90;;;;;;6139769;23;20496;-76
2022/10/19 11:01:08;;;;;;;3.67;3.37;;;17.40;99.90;;;;;;6120042;23;21025;-76
2022/10/19 11:03:37;;;;;;;3.70;3.40;;;17.40;99.90;;;;;;6106431;23;20429;-76
2022/10/19 11:06:09;;;;;;;4.27;3.70;;;17.40;99.90;;;;;;6120970;23;20487;-76
2022/10/19 11:08:47;;;;;;;4.03;3.70;;;17.30;99.90;;;;;;6117890;23;20487;-76
2022/10/19 11:11:18;;;;;;;4.57;3.53;;;17.40;99.90;;;;;;6117990;23;20932;-76
2022/10/19 11:13:51;;;;;;;3.57;3.27;;;17.30;99.90;;;;;;6121427;23;20423;-76
2022/10/19 11:16:24;;;;;;;3.13;2.93;;;17.30;99.90;;;;;;6124456;23;20495;-76
2022/10/19 11:18:56;;;;;;;5.80;3.27;;;17.40;99.90;;;;;;6130643;23;20417;-76
2022/10/19 11:21:31;;;;;;;3.17;2.97;;;17.50;99.90;;;;;;6149088;23;20475;-76
2022/10/19 11:24:11;;;;;;;4.03;3.03;;;17.60;99.90;;;;;;6128664;23;21017;-76
2022/10/19 11:26:55;;;;;;;13.07;4.17;;;17.60;99.90;;;;;;6119155;23;20412;-76
2022/10/19 11:29:42;;;;;;;3.03;2.83;;;17.60;99.90;;;;;;6120378;23;20444;-76
2022/10/19 11:32:18;;;;;;;3.93;3.10;;;17.70;99.90;;;;;;6119971;23;20445;-76
2022/10/19 11:34:58;;;;;;;3.47;3.23;;;17.80;99.90;;;;;;6135464;23;20433;-77
2022/10/19 11:37:32;;;;;;;4.10;3.40;;;17.70;99.90;;;;;;6118141;23;20879;-76
2022/10/19 11:40:10;;;;;;;3.17;2.90;;;17.60;99.90;;;;;;6120239;23;20772;-76
2022/10/19 11:42:49;;;;;;;3.80;3.43;;;17.70;99.90;;;;;;6117703;23;20421;-76
2022/10/19 11:45:27;;;;;;;3.83;3.53;;;17.80;99.90;;;;;;6119990;23;20497;-77
2022/10/19 11:48:08;;;;;;;3.20;2.90;;;18.00;99.90;;;;;;6119927;23;20460;-76
2022/10/19 11:50:44;;;;;;;4.37;4.07;;;18.50;99.90;;;;;;6120028;23;20437;-76
2022/10/19 11:53:21;;;;;;;3.40;3.20;;;19.00;99.90;;;;;;6119282;23;20513;-76
2022/10/19 11:56:00;;;;;;;3.47;3.20;;;19.30;99.90;;;;;;6117484;23;20499;-76
2022/10/19 11:58:42;;;;;;;3.07;2.87;;;19.90;99.90;;;;;;6120298;23;20494;-76
2022/10/19 12:01:22;;;;;;;4.60;3.70;;;20.30;99.90;;;;;;6119735;23;20418;-76
2022/10/19 12:04:13;;;;;;;7.03;3.43;;;20.70;99.90;;;;;;6119445;23;20425;-76
2022/10/19 12:06:51;;;;;;;3.20;2.93;;;20.90;99.90;;;;;;6118154;23;20448;-76
2022/10/19 12:09:28;;;;;;;3.30;2.70;;;21.20;99.90;;;;;;6119573;23;20468;-76
2022/10/19 12:12:21;;;;;;;3.50;3.20;;;21.30;99.90;;;;;;6118920;23;20475;-76
2022/10/19 12:14:52;;;;;;;3.17;2.93;;;21.10;99.90;;;;;;6120578;23;20460;-77
2022/10/19 12:17:25;;;;;;;2.77;2.57;;;20.90;99.90;;;;;;6119259;23;20460;-76
2022/10/19 12:19:58;;;;;;;3.40;3.10;;;20.80;99.90;;;;;;6119074;23;20529;-76
2022/10/19 12:22:29;;;;;;;3.47;3.17;;;20.30;99.90;;;;;;6119439;23;20504;-76
2022/10/19 12:25:01;;;;;;;2.87;2.67;;;20.50;99.90;;;;;;6118927;23;20422;-76
2022/10/19 12:27:33;;;;;;;2.93;2.60;;;20.70;99.90;;;;;;6119774;23;20496;-76
2022/10/19 12:30:05;;;;;;;4.07;2.63;;;20.40;99.90;;;;;;6119240;23;20459;-76
2022/10/19 12:32:40;;;;;;;2.67;2.47;;;20.30;99.90;;;;;;6123983;23;20441;-76
2022/10/19 12:35:21;;;;;;;4.13;2.50;;;20.50;99.90;;;;;;6119449;23;20431;-76
2022/10/19 12:37:55;;;;;;;2.70;2.50;;;20.70;99.90;;;;;;6117701;23;20417;-77
2022/10/19 12:40:32;;;;;;;3.37;2.80;;;20.50;99.90;;;;;;6119234;23;20451;-77
2022/10/19 12:43:08;;;;;;;2.50;2.30;;;20.50;99.90;;;;;;6090719;23;20429;-77
2022/10/19 12:45:39;;;;;;;3.17;2.80;;;20.80;99.90;;;;;;6116737;23;20425;-76
2022/10/19 12:48:21;;;;;;;2.50;2.30;;;21.00;99.90;;;;;;6128368;23;20546;-76
2022/10/19 12:51:02;;;;;;;4.90;2.87;;;21.10;99.90;;;;;;6093031;23;20492;-76
2022/10/19 12:53:34;;;;;;;3.40;3.10;;;20.50;99.90;;;;;;6119568;23;20495;-76